Time,TemperatureF,DewpointF,PressureIn,WindDirection,WindDirectionDegrees,WindSpeedMPH,WindSpeedGustMPH,Humidity,HourlyPrecipIn,Conditions,Clouds,dailyrainin,SolarRadiationWatts/m^2,SoftwareType,DateUTC
2013-01-02 00:22:00,12.0,10.0,-100.00,ENE,73,7.0,9.0,91,0.00,,,-99.99,1.000000,,2013-01-02 08:22:00,
2013-01-02 00:32:00,12.0,10.0,-100.00,ENE,73,7.0,9.0,91,0.00,,,-99.99,1.000000,,2013-01-02 08:32:00,
2013-01-02 00:42:00,12.0,10.0,-100.00,ENE,73,7.0,9.0,91,0.00,,,-99.99,1.000000,,2013-01-02 08:42:00,
2013-01-02 00:52:00,12.0,10.0,-100.00,ENE,73,7.0,9.0,91,0.00,,,-99.99,1.000000,,2013-01-02 08:52:00,
2013-01-02 01:22:00,13.0,11.0,-100.00,NE,47,7.0,10.0,90,0.00,,,0.00,1.000000,,2013-01-02 09:22:00,
2013-01-02 01:32:00,13.0,11.0,-100.00,NE,47,7.0,10.0,90,0.00,,,0.00,1.000000,,2013-01-02 09:32:00,
2013-01-02 01:43:00,13.0,11.0,-100.00,NE,47,7.0,10.0,90,0.00,,,0.00,1.000000,,2013-01-02 09:43:00,
2013-01-02 01:52:00,13.0,11.0,-100.00,NE,47,7.0,10.0,90,0.00,,,0.00,1.000000,,2013-01-02 09:52:00,
2013-01-02 02:12:00,8.0,5.0,-100.00,East,79,7.0,10.0,88,0.00,,,0.00,1.000000,,2013-01-02 10:12:00,
2013-01-02 02:22:00,8.0,5.0,-100.00,East,79,7.0,10.0,88,0.00,,,0.00,1.000000,,2013-01-02 10:22:00,
2013-01-02 02:32:00,8.0,5.0,-100.00,East,79,7.0,10.0,88,0.00,,,0.00,1.000000,,2013-01-02 10:32:00,
2013-01-02 02:42:00,8.0,5.0,-100.00,East,79,7.0,10.0,88,0.00,,,0.00,1.000000,,2013-01-02 10:42:00,
2013-01-02 02:52:00,8.0,5.0,-100.00,East,79,7.0,10.0,88,0.00,,,0.00,1.000000,,2013-01-02 10:52:00,
2013-01-02 03:22:00,10.0,7.0,-100.00,ENE,68,8.0,11.0,87,0.00,,,0.00,1.000000,,2013-01-02 11:22:00,
2013-01-02 03:32:00,10.0,7.0,-100.00,ENE,68,8.0,11.0,87,0.00,,,0.00,1.000000,,2013-01-02 11:32:00,
2013-01-02 03:42:00,10.0,7.0,-100.00,ENE,68,8.0,11.0,87,0.00,,,0.00,1.000000,,2013-01-02 11:42:00,
2013-01-02 03:52:00,10.0,7.0,-100.00,ENE,68,8.0,11.0,87,0.00,,,0.00,1.000000,,2013-01-02 11:52:00,
2013-01-02 04:22:00,8.0,5.0,-100.00,ENE,69,9.0,15.0,86,0.00,,,0.00,1.000000,,2013-01-02 12:22:00,
2013-01-02 04:32:00,8.0,5.0,-100.00,ENE,69,9.0,15.0,86,0.00,,,0.00,1.000000,,2013-01-02 12:32:00,
2013-01-02 04:42:00,8.0,5.0,-100.00,ENE,69,9.0,15.0,86,0.00,,,0.00,1.000000,,2013-01-02 12:42:00,
2013-01-02 04:52:00,8.0,5.0,-100.00,ENE,69,9.0,15.0,86,0.00,,,0.00,1.000000,,2013-01-02 12:52:00,
2013-01-02 05:22:00,6.0,2.0,-100.00,ENE,78,5.0,13.0,84,0.00,,,0.00,1.000000,,2013-01-02 13:22:00,
2013-01-02 05:32:00,6.0,2.0,-100.00,ENE,78,5.0,13.0,84,0.00,,,0.00,1.000000,,2013-01-02 13:32:00,
2013-01-02 05:42:00,6.0,2.0,-100.00,ENE,78,5.0,13.0,84,0.00,,,0.00,1.000000,,2013-01-02 13:42:00,
2013-01-02 05:52:00,6.0,2.0,-100.00,ENE,78,5.0,13.0,84,0.00,,,0.00,1.000000,,2013-01-02 13:52:00,
2013-01-02 06:22:00,6.0,3.0,-100.00,ENE,63,7.0,10.0,86,0.00,,,0.00,1.000000,,2013-01-02 14:22:00,
2013-01-02 06:32:00,6.0,3.0,-100.00,ENE,63,7.0,10.0,86,0.00,,,0.00,1.000000,,2013-01-02 14:32:00,
2013-01-02 06:42:00,6.0,3.0,-100.00,ENE,63,7.0,10.0,86,0.00,,,0.00,1.000000,,2013-01-02 14:42:00,
2013-01-02 06:53:00,6.0,3.0,-100.00,ENE,63,7.0,10.0,86,0.00,,,0.00,1.000000,,2013-01-02 14:53:00,
2013-01-02 07:22:00,5.0,2.0,-100.00,ENE,66,7.0,12.0,85,0.00,,,-99.99,1.000000,,2013-01-02 15:22:00,
2013-01-02 07:33:00,5.0,2.0,-100.00,ENE,66,7.0,12.0,85,0.00,,,-99.99,1.000000,,2013-01-02 15:33:00,
2013-01-02 07:42:00,5.0,2.0,-100.00,ENE,66,7.0,12.0,85,0.00,,,-99.99,1.000000,,2013-01-02 15:42:00,
2013-01-02 07:52:00,5.0,2.0,-100.00,ENE,66,7.0,12.0,85,0.00,,,-99.99,1.000000,,2013-01-02 15:52:00,
2013-01-02 08:22:00,5.0,1.0,-100.00,ENE,70,9.0,11.0,84,0.00,,,0.00,4.000000,,2013-01-02 16:22:00,
2013-01-02 08:33:00,5.0,1.0,-100.00,ENE,70,9.0,11.0,84,0.00,,,0.00,4.000000,,2013-01-02 16:33:00,
2013-01-02 08:42:00,5.0,1.0,-100.00,ENE,70,9.0,11.0,84,0.00,,,0.00,4.000000,,2013-01-02 16:42:00,
2013-01-02 08:53:00,5.0,1.0,-100.00,ENE,70,9.0,11.0,84,0.00,,,0.00,4.000000,,2013-01-02 16:53:00,
2013-01-02 09:22:00,7.0,2.0,-100.00,ENE,70,6.0,11.0,80,0.00,,,-99.99,38.000000,,2013-01-02 17:22:00,
2013-01-02 09:33:00,7.0,2.0,-100.00,ENE,70,6.0,11.0,80,0.00,,,-99.99,38.000000,,2013-01-02 17:33:00,
2013-01-02 09:43:00,7.0,2.0,-100.00,ENE,70,6.0,11.0,80,0.00,,,-99.99,38.000000,,2013-01-02 17:43:00,
2013-01-02 09:53:00,7.0,2.0,-100.00,ENE,70,6.0,11.0,80,0.00,,,-99.99,38.000000,,2013-01-02 17:53:00,
2013-01-02 10:22:00,12.0,7.0,-100.00,ENE,61,8.0,11.0,80,0.00,,,0.00,80.000000,,2013-01-02 18:22:00,
2013-01-02 10:33:00,12.0,7.0,-100.00,ENE,61,8.0,11.0,80,0.00,,,0.00,80.000000,,2013-01-02 18:33:00,
2013-01-02 10:42:00,12.0,7.0,-100.00,ENE,61,8.0,11.0,80,0.00,,,0.00,80.000000,,2013-01-02 18:42:00,
2013-01-02 10:52:00,12.0,7.0,-100.00,ENE,61,8.0,11.0,80,0.00,,,0.00,80.000000,,2013-01-02 18:52:00,
2013-01-02 11:22:00,21.0,14.0,-100.00,NE,53,5.0,11.0,73,0.00,,,0.00,113.000000,,2013-01-02 19:22:00,
2013-01-02 11:32:00,21.0,14.0,-100.00,NE,53,5.0,11.0,73,0.00,,,0.00,113.000000,,2013-01-02 19:32:00,
2013-01-02 11:42:00,21.0,14.0,-100.00,NE,53,5.0,11.0,73,0.00,,,0.00,113.000000,,2013-01-02 19:42:00,
2013-01-02 11:52:00,21.0,14.0,-100.00,NE,53,5.0,11.0,73,0.00,,,0.00,113.000000,,2013-01-02 19:52:00,
2013-01-02 12:22:00,25.0,15.0,-100.00,ENE,58,9.0,13.0,66,0.00,,,0.00,321.000000,,2013-01-02 20:22:00,
2013-01-02 12:33:00,25.0,15.0,-100.00,ENE,58,9.0,13.0,66,0.00,,,0.00,321.000000,,2013-01-02 20:33:00,
2013-01-02 12:42:00,25.0,15.0,-100.00,ENE,58,9.0,13.0,66,0.00,,,0.00,321.000000,,2013-01-02 20:42:00,
2013-01-02 12:53:00,25.0,15.0,-100.00,ENE,58,9.0,13.0,66,0.00,,,0.00,321.000000,,2013-01-02 20:53:00,
2013-01-02 13:22:00,31.0,18.0,-100.00,NE,51,5.0,12.0,58,0.00,,,0.00,396.000000,,2013-01-02 21:22:00,
2013-01-02 13:32:00,31.0,18.0,-100.00,NE,51,5.0,12.0,58,0.00,,,0.00,396.000000,,2013-01-02 21:32:00,
2013-01-02 13:42:00,31.0,18.0,-100.00,NE,51,5.0,12.0,58,0.00,,,0.00,396.000000,,2013-01-02 21:42:00,
2013-01-02 13:52:00,31.0,18.0,-100.00,NE,51,5.0,12.0,58,0.00,,,0.00,396.000000,,2013-01-02 21:52:00,
2013-01-02 14:22:00,33.0,18.0,-100.00,WSW,247,2.0,7.0,53,0.00,,,0.00,336.000000,,2013-01-02 22:22:00,
2013-01-02 14:32:00,33.0,18.0,-100.00,WSW,247,2.0,7.0,53,0.00,,,0.00,336.000000,,2013-01-02 22:32:00,
2013-01-02 14:42:00,33.0,18.0,-100.00,WSW,247,2.0,7.0,53,0.00,,,0.00,336.000000,,2013-01-02 22:42:00,
2013-01-02 14:52:00,33.0,18.0,-100.00,WSW,247,2.0,7.0,53,0.00,,,0.00,336.000000,,2013-01-02 22:52:00,
2013-01-02 15:22:00,36.0,20.0,-100.00,NE,44,3.0,7.0,52,0.00,,,0.00,263.000000,,2013-01-02 23:22:00,
2013-01-02 15:33:00,36.0,20.0,-100.00,NE,44,3.0,7.0,52,0.00,,,0.00,263.000000,,2013-01-02 23:33:00,
2013-01-02 15:42:00,36.0,20.0,-100.00,NE,44,3.0,7.0,52,0.00,,,0.00,263.000000,,2013-01-02 23:42:00,
2013-01-02 15:52:00,36.0,20.0,-100.00,NE,44,3.0,7.0,52,0.00,,,0.00,263.000000,,2013-01-02 23:52:00,
2013-01-02 16:22:00,33.0,17.0,-100.00,NNE,18,4.0,7.0,52,0.00,,,0.00,163.000000,,2013-01-03 00:22:00,
2013-01-02 16:37:00,33.0,17.0,-100.00,NNE,18,4.0,7.0,52,0.00,,,0.00,163.000000,,2013-01-03 00:37:00,
2013-01-02 16:52:00,33.0,17.0,-100.00,NNE,18,4.0,7.0,52,0.00,,,0.00,163.000000,,2013-01-03 00:52:00,
2013-01-02 17:22:00,28.0,16.0,-100.00,NNE,29,4.0,5.0,61,0.00,,,0.00,41.000000,,2013-01-03 01:22:00,
2013-01-02 17:32:00,28.0,16.0,-100.00,NNE,29,4.0,5.0,61,0.00,,,0.00,41.000000,,2013-01-03 01:32:00,
2013-01-02 17:42:00,28.0,16.0,-100.00,NNE,29,4.0,5.0,61,0.00,,,0.00,41.000000,,2013-01-03 01:42:00,
2013-01-02 17:52:00,28.0,16.0,-100.00,NNE,29,4.0,5.0,61,0.00,,,0.00,41.000000,,2013-01-03 01:52:00,
2013-01-02 19:22:00,24.0,17.0,-100.00,NE,40,6.0,9.0,73,-99.99,,,0.00,1.000000,,2013-01-03 03:22:00,
2013-01-02 19:42:00,24.0,17.0,-100.00,NE,40,6.0,9.0,73,-99.99,,,0.00,1.000000,,2013-01-03 03:42:00,
2013-01-02 19:52:00,24.0,17.0,-100.00,NE,40,6.0,9.0,73,-99.99,,,0.00,1.000000,,2013-01-03 03:52:00,
2013-01-02 20:22:00,21.0,15.0,-100.00,ENE,64,5.0,11.0,77,0.00,,,0.00,1.000000,,2013-01-03 04:22:00,
2013-01-02 20:32:00,21.0,15.0,-100.00,ENE,64,5.0,11.0,77,0.00,,,0.00,1.000000,,2013-01-03 04:32:00,
2013-01-02 20:42:00,21.0,15.0,-100.00,ENE,64,5.0,11.0,77,0.00,,,0.00,1.000000,,2013-01-03 04:42:00,
2013-01-02 20:52:00,21.0,15.0,-100.00,ENE,64,5.0,11.0,77,0.00,,,0.00,1.000000,,2013-01-03 04:52:00,
2013-01-02 21:22:00,20.0,14.0,-100.00,NE,56,9.0,13.0,76,0.00,,,-99.99,1.000000,,2013-01-03 05:22:00,
2013-01-02 21:33:00,20.0,14.0,-100.00,NE,56,9.0,13.0,76,0.00,,,-99.99,1.000000,,2013-01-03 05:33:00,
2013-01-02 21:42:00,20.0,14.0,-100.00,NE,56,9.0,13.0,76,0.00,,,-99.99,1.000000,,2013-01-03 05:42:00,
2013-01-02 21:52:00,20.0,14.0,-100.00,NE,56,9.0,13.0,76,0.00,,,-99.99,1.000000,,2013-01-03 05:52:00,
2013-01-02 22:22:00,18.0,13.0,-100.00,ENE,64,9.0,15.0,80,0.00,,,0.00,1.000000,,2013-01-03 06:22:00,
2013-01-02 22:32:00,18.0,13.0,-100.00,ENE,64,9.0,15.0,80,0.00,,,0.00,1.000000,,2013-01-03 06:32:00,
2013-01-02 22:42:00,18.0,13.0,-100.00,ENE,64,9.0,15.0,80,0.00,,,0.00,1.000000,,2013-01-03 06:42:00,
2013-01-02 22:52:00,18.0,13.0,-100.00,ENE,64,9.0,15.0,80,0.00,,,0.00,1.000000,,2013-01-03 06:52:00,
2013-01-02 23:22:00,16.0,11.0,-100.00,ENE,60,10.0,14.0,81,0.00,,,0.00,1.000000,,2013-01-03 07:22:00,
2013-01-02 23:32:00,16.0,11.0,-100.00,ENE,60,10.0,14.0,81,0.00,,,0.00,1.000000,,2013-01-03 07:32:00,
2013-01-02 23:42:00,16.0,11.0,-100.00,ENE,60,10.0,14.0,81,0.00,,,0.00,1.000000,,2013-01-03 07:42:00,
2013-01-02 23:52:00,16.0,11.0,-100.00,ENE,60,10.0,14.0,81,0.00,,,0.00,1.000000,,2013-01-03 07:52:00,